Terminal Aerodrome Forecast
Issued by NWS

Home | Current Version | Previous Version | Text Only | Print | Product List | Glossary Off
Versions: 1 2 3 4 5 6 7 8 9 10 11 12 13 14

000
FTUS43 KIWX 151706 AAA
TAFSBN
TAF AMD
KSBN 151706Z 1517/1612 29016G28KT P6SM -RA BKN015 OVC022
      TEMPO 1517/1520 2SM -RA BR OVC012
     FM160000 33010KT P6SM BKN040=

USA.gov is the U.S. government's official web portal to all federal, state and local government web resources and services.